Página principal
METAR-TAF:

METAR-TAF

Aeroportos :

Aeroporto Internacional Harbin Taiping

Harbin, China

latitude: 45-45N, longitude: 126-46E, altura: 143 m

Observação actual do tempo

O boletim foi feito há 31 minutos, às 09:00 UTC
Vento 6 kt de este
Temperatura 12°C
Humidade 88%
Pressão 1007 hPa
Visibilidade 10 km ou mais
Nuvens fragmentadasa uma altura de 3000 ft
chuva fraca

METAR: ZYHB 270900Z 09003MPS 9999 -RA BKN030 12/10 Q1007 NOSIG

Hora: 17:31 (09:31 UTC)

Previsão

O boletim foi feito há 6 horas e 30 minutos, às 03:01 UTC
Previsão válida de 27 às 06 UTC a 28 às 06 UTC
Vento 8 kt de nor-nordeste
Visibilidade: 6000 m
Nuvens fragmentadasa uma altura de 3300 ft
Temporariamente
de 27 às 06 UTC a 27 às 12 UTC
Poucas nuvensa uma altura de 2000 ft, Cumulonimbus.
Nuvens fragmentadasa uma altura de 2300 ft
trovoada, chuva fraca

TAF: ZYHB 270301Z 2706/2806 02004MPS 6000 BKN033 TX16/2706Z TN11/2721Z TEMPO 2706/2712 -TSRA FEW020CB BKN023

Observações e previsões do tempo de mais de 4000 aeroportos (mensagens METAR e TAF).

As estações disponíveis são os pontos amarelos e vermelhos sobre o mapa.

Mova o rato sobre o mapa para ver o nome da estação.

Depois clique no ponto para visualizar as observações e previsões meteorológicas.

Para alterar o mapa : clique nos botões verdes com uma cruz preta para aumentar o zoom; no botão verde com uma pitada de zoom; ou nas setas verdes para mapas adjacentes.


METAR-TAF: